ECBCA LEBB-LEPP

Flight info

Callsign ECBCA
Flight time 0h 52m
Altitude 5000
Route SSN N10 PPN
Aircraft C182/L-SDGRY/S

Departure

Time 2026-04-18 09:07
Airport Bilbao Airport (LEBB)

Arrival

Time 2026-04-18 09:59
Airport Pamplona Airport (LEPP)
Time Latitude Longitude Altitude Speed Heading
2026-04-18 08:35 43.30102 -2.93256 127 ft 0 kts 275°
2026-04-18 09:00 43.30130 -2.93252 125 ft 9 kts
2026-04-18 09:01 43.30153 -2.93205 127 ft 7 kts 99°
2026-04-18 09:01 43.30147 -2.93139 126 ft 10 kts 94°
2026-04-18 09:01 43.30145 -2.93048 127 ft 8 kts 51°
2026-04-18 09:01 43.30156 -2.93036 125 ft 0 kts 30°
2026-04-18 09:02 43.30186 -2.93027 127 ft 0 kts
2026-04-18 09:04 43.30247 -2.93014 126 ft 16 kts 19°
2026-04-18 09:05 43.30268 -2.92850 126 ft 24 kts 101°
2026-04-18 09:05 43.30243 -2.92575 126 ft 35 kts 103°
2026-04-18 09:05 43.30206 -2.92231 125 ft 33 kts 102°
2026-04-18 09:05 43.30172 -2.91966 129 ft 17 kts 90°
2026-04-18 09:06 43.30188 -2.91976 127 ft 7 kts 278°
2026-04-18 09:06 43.30206 -2.92188 128 ft 47 kts 275°
2026-04-18 09:06 43.30259 -2.92866 125 ft 93 kts 277°
2026-04-18 09:06 43.30313 -2.93780 391 ft 95 kts 276°
2026-04-18 09:07 43.30355 -2.94701 676 ft 100 kts 274°
2026-04-18 09:07 43.30358 -2.95732 950 ft 109 kts 273°
2026-04-18 09:07 43.30361 -2.96789 1309 ft 112 kts 271°
2026-04-18 09:07 43.30370 -2.97864 1670 ft 113 kts 273°
2026-04-18 09:08 43.30402 -2.98950 1983 ft 118 kts 273°
2026-04-18 09:08 43.30439 -3.00173 2088 ft 135 kts 273°
2026-04-18 09:08 43.30480 -3.01504 2224 ft 143 kts 273°
2026-04-18 09:08 43.30523 -3.02890 2362 ft 148 kts 273°
2026-04-18 09:09 43.30624 -3.04280 2485 ft 149 kts 280°
2026-04-18 09:09 43.30836 -3.05673 2622 ft 150 kts 286°
2026-04-18 09:09 43.31145 -3.07042 2756 ft 150 kts 288°
2026-04-18 09:09 43.31454 -3.08415 2879 ft 150 kts 288°
2026-04-18 09:10 43.31740 -3.09688 2998 ft 151 kts 288°
2026-04-18 09:10 43.32040 -3.11070 3123 ft 151 kts 286°
2026-04-18 09:10 43.32315 -3.12469 3252 ft 152 kts 285°
2026-04-18 09:10 43.32754 -3.13766 3340 ft 152 kts 316°
2026-04-18 09:11 43.33734 -3.14144 3414 ft 150 kts
2026-04-18 09:11 43.34754 -3.13858 3499 ft 151 kts 13°
2026-04-18 09:11 43.35808 -3.13579 3498 ft 156 kts 12°
2026-04-18 09:11 43.36874 -3.13291 3502 ft 157 kts 12°
2026-04-18 09:12 43.37924 -3.12920 3500 ft 152 kts 18°
2026-04-18 09:12 43.38815 -3.12472 3494 ft 144 kts 24°
2026-04-18 09:12 43.39693 -3.11845 3488 ft 141 kts 34°
2026-04-18 09:12 43.40459 -3.11034 3489 ft 138 kts 43°
2026-04-18 09:13 43.41144 -3.10118 3487 ft 137 kts 47°
2026-04-18 09:13 43.41790 -3.09161 3489 ft 137 kts 48°
2026-04-18 09:13 43.42414 -3.08181 3490 ft 135 kts 53°
2026-04-18 09:13 43.42988 -3.07157 3489 ft 135 kts 53°
2026-04-18 09:14 43.43559 -3.06148 3497 ft 135 kts 53°
2026-04-18 09:14 43.44135 -3.05129 3493 ft 135 kts 53°
2026-04-18 09:14 43.44715 -3.04107 3493 ft 135 kts 53°
2026-04-18 09:14 43.45293 -3.03085 3492 ft 135 kts 53°
2026-04-18 09:15 43.45852 -3.02048 3487 ft 134 kts 58°
2026-04-18 09:15 43.46319 -3.00936 3492 ft 134 kts 64°
2026-04-18 09:15 43.46672 -2.99749 3490 ft 134 kts 72°
2026-04-18 09:15 43.46963 -2.98528 3491 ft 134 kts 72°
2026-04-18 09:16 43.47206 -2.97289 3490 ft 134 kts 84°
2026-04-18 09:16 43.47249 -2.96011 3494 ft 134 kts 87°
2026-04-18 09:16 43.47282 -2.94731 3493 ft 135 kts 90°
2026-04-18 09:16 43.47258 -2.93440 3499 ft 135 kts 91°
2026-04-18 09:17 43.47236 -2.92138 3499 ft 136 kts 91°
2026-04-18 09:17 43.47215 -2.90840 3500 ft 135 kts 91°
2026-04-18 09:17 43.47195 -2.89544 3495 ft 135 kts 91°
2026-04-18 09:17 43.47098 -2.88266 3494 ft 134 kts 97°
2026-04-18 09:18 43.46929 -2.87004 3490 ft 134 kts 103°
2026-04-18 09:18 43.46697 -2.85772 3492 ft 134 kts 104°
2026-04-18 09:18 43.46467 -2.84525 3491 ft 134 kts 103°
2026-04-18 09:18 43.46184 -2.83399 3489 ft 134 kts 116°
2026-04-18 09:19 43.45746 -2.82367 3492 ft 134 kts 118°
2026-04-18 09:19 43.45218 -2.81299 3497 ft 137 kts 129°
2026-04-18 09:19 43.44585 -2.80297 3498 ft 140 kts 129°
2026-04-18 09:19 43.43970 -2.79264 3498 ft 139 kts 127°
2026-04-18 09:20 43.43374 -2.78231 3493 ft 137 kts 127°
2026-04-18 09:20 43.42796 -2.77231 3492 ft 133 kts 127°
2026-04-18 09:20 43.42222 -2.76255 3499 ft 130 kts 128°
2026-04-18 09:20 43.41619 -2.75301 3501 ft 134 kts 132°
2026-04-18 09:21 43.40959 -2.74390 3498 ft 135 kts 134°
2026-04-18 09:21 43.40283 -2.73482 3503 ft 136 kts 134°
2026-04-18 09:21 43.39525 -2.72688 3496 ft 138 kts 145°
2026-04-18 09:21 43.38664 -2.72125 3492 ft 137 kts 160°
2026-04-18 09:22 43.37729 -2.71818 3492 ft 139 kts 168°
2026-04-18 09:22 43.36773 -2.71588 3494 ft 139 kts 168°
2026-04-18 09:22 43.35825 -2.71312 3491 ft 139 kts 164°
2026-04-18 09:22 43.34891 -2.70977 3489 ft 137 kts 162°
2026-04-18 09:23 43.33982 -2.70617 3495 ft 136 kts 162°
2026-04-18 09:23 43.33105 -2.70114 3479 ft 138 kts 144°
2026-04-18 09:23 43.32738 -2.68974 3471 ft 136 kts 85°
2026-04-18 09:23 43.33021 -2.67753 3496 ft 134 kts 70°
2026-04-18 09:24 43.33320 -2.66529 3493 ft 135 kts 72°
2026-04-18 09:24 43.33595 -2.65313 3499 ft 135 kts 73°
2026-04-18 09:24 43.33822 -2.64065 3487 ft 135 kts 82°
2026-04-18 09:24 43.33805 -2.62781 3494 ft 135 kts 92°
2026-04-18 09:25 43.33733 -2.61494 3488 ft 135 kts 100°
2026-04-18 09:25 43.33511 -2.60238 3487 ft 135 kts 103°
2026-04-18 09:25 43.33249 -2.58994 3481 ft 136 kts 111°
2026-04-18 09:25 43.32850 -2.57823 3490 ft 136 kts 114°
2026-04-18 09:26 43.32450 -2.56643 3487 ft 137 kts 114°
2026-04-18 09:26 43.32048 -2.55442 3490 ft 139 kts 113°
2026-04-18 09:26 43.31644 -2.54240 3492 ft 139 kts 113°
2026-04-18 09:26 43.31581 -2.52955 3489 ft 135 kts 80°
2026-04-18 09:27 43.31722 -2.51694 3488 ft 136 kts 82°
2026-04-18 09:27 43.31850 -2.50406 3489 ft 136 kts 83°
2026-04-18 09:27 43.31951 -2.49106 3487 ft 138 kts 83°
2026-04-18 09:27 43.32054 -2.47809 3484 ft 136 kts 83°
2026-04-18 09:28 43.32139 -2.46518 3484 ft 136 kts 87°
2026-04-18 09:28 43.32159 -2.45216 3482 ft 137 kts 88°
2026-04-18 09:28 43.32156 -2.43907 3477 ft 137 kts 95°
2026-04-18 09:28 43.32035 -2.42609 3479 ft 137 kts 94°
2026-04-18 09:29 43.31974 -2.41301 3477 ft 137 kts 93°
2026-04-18 09:29 43.31928 -2.39999 3476 ft 136 kts 90°
2026-04-18 09:29 43.31954 -2.38699 3474 ft 137 kts 88°
2026-04-18 09:29 43.31943 -2.37397 3472 ft 136 kts 93°
2026-04-18 09:30 43.31882 -2.36094 3473 ft 136 kts 93°
2026-04-18 09:30 43.31824 -2.34795 3474 ft 137 kts 93°
2026-04-18 09:30 43.31767 -2.33493 3474 ft 137 kts 93°
2026-04-18 09:30 43.31716 -2.32204 3474 ft 137 kts 91°
2026-04-18 09:31 43.31693 -2.30879 3476 ft 137 kts 91°
2026-04-18 09:31 43.31671 -2.29585 3476 ft 137 kts 91°
2026-04-18 09:31 43.31649 -2.28276 3473 ft 137 kts 91°
2026-04-18 09:31 43.31628 -2.26969 3474 ft 137 kts 91°
2026-04-18 09:32 43.31605 -2.25662 3475 ft 137 kts 90°
2026-04-18 09:32 43.31646 -2.24358 3476 ft 137 kts 85°
2026-04-18 09:32 43.31740 -2.23059 3478 ft 137 kts 84°
2026-04-18 09:32 43.31751 -2.21757 3473 ft 137 kts 93°
2026-04-18 09:33 43.31678 -2.20456 3475 ft 137 kts 94°
2026-04-18 09:33 43.31607 -2.19151 3476 ft 137 kts 94°
2026-04-18 09:33 43.31537 -2.17841 3478 ft 138 kts 93°
2026-04-18 09:33 43.31466 -2.16532 3479 ft 137 kts 94°
2026-04-18 09:34 43.31283 -2.15248 3477 ft 137 kts 103°
2026-04-18 09:34 43.31061 -2.13973 3479 ft 137 kts 102°
2026-04-18 09:34 43.30902 -2.12683 3477 ft 137 kts 97°
2026-04-18 09:34 43.30768 -2.11404 3478 ft 137 kts 97°
2026-04-18 09:35 43.30632 -2.10108 3479 ft 137 kts 97°
2026-04-18 09:35 43.30497 -2.08811 3481 ft 137 kts 97°
2026-04-18 09:35 43.30363 -2.07512 3482 ft 138 kts 97°
2026-04-18 09:35 43.30232 -2.06209 3484 ft 138 kts 97°
2026-04-18 09:36 43.30101 -2.04905 3483 ft 138 kts 97°
2026-04-18 09:36 43.29971 -2.03599 3484 ft 138 kts 97°
2026-04-18 09:36 43.29841 -2.02293 3484 ft 138 kts 97°
2026-04-18 09:36 43.29616 -2.01018 3485 ft 138 kts 108°
2026-04-18 09:37 43.29321 -1.99764 3485 ft 138 kts 107°
2026-04-18 09:37 43.29054 -1.98502 3488 ft 138 kts 105°
2026-04-18 09:37 43.28752 -1.97251 3485 ft 138 kts 104°
2026-04-18 09:37 43.28589 -1.95973 3486 ft 138 kts 95°
2026-04-18 09:38 43.28623 -1.94667 3489 ft 137 kts 78°
2026-04-18 09:38 43.28951 -1.93443 3488 ft 137 kts 62°
2026-04-18 09:38 43.29263 -1.92244 3473 ft 137 kts 94°
2026-04-18 09:38 43.28844 -1.91100 3484 ft 137 kts 134°
2026-04-18 09:39 43.28339 -1.90044 3473 ft 136 kts 97°
2026-04-18 09:39 43.28459 -1.88762 3497 ft 136 kts 79°
2026-04-18 09:39 43.28604 -1.87468 3505 ft 138 kts 81°
2026-04-18 09:39 43.28701 -1.86606 3506 ft 138 kts 81°
2026-04-18 09:40 43.28850 -1.85299 3504 ft 139 kts 81°
2026-04-18 09:40 43.29002 -1.83991 3509 ft 139 kts 81°
2026-04-18 09:40 43.29155 -1.82681 3507 ft 139 kts 81°
2026-04-18 09:40 43.29288 -1.81378 3495 ft 138 kts 88°
2026-04-18 09:41 43.28830 -1.80278 3476 ft 139 kts 147°
2026-04-18 09:41 43.27888 -1.80203 3487 ft 138 kts 192°
2026-04-18 09:41 43.26947 -1.80490 3504 ft 139 kts 191°
2026-04-18 09:41 43.26024 -1.80888 3499 ft 140 kts 202°
2026-04-18 09:42 43.25114 -1.81373 3501 ft 140 kts 199°
2026-04-18 09:42 43.24153 -1.81346 3484 ft 140 kts 162°
2026-04-18 09:42 43.23240 -1.80950 3492 ft 140 kts 166°
2026-04-18 09:42 43.22287 -1.80678 3487 ft 140 kts 171°
2026-04-18 09:43 43.21321 -1.80482 3489 ft 140 kts 171°
2026-04-18 09:43 43.20356 -1.80281 3490 ft 141 kts 171°
2026-04-18 09:43 43.19388 -1.80077 3486 ft 140 kts 171°
2026-04-18 09:43 43.18421 -1.79873 3486 ft 141 kts 171°
2026-04-18 09:44 43.17453 -1.79669 3486 ft 141 kts 171°
2026-04-18 09:44 43.16480 -1.79464 3483 ft 142 kts 171°
2026-04-18 09:44 43.15502 -1.79256 3483 ft 142 kts 171°
2026-04-18 09:44 43.14527 -1.79051 3480 ft 141 kts 171°
2026-04-18 09:45 43.13555 -1.78845 3478 ft 141 kts 171°
2026-04-18 09:45 43.12582 -1.78636 3479 ft 141 kts 171°
2026-04-18 09:45 43.11607 -1.78427 3477 ft 142 kts 171°
2026-04-18 09:45 43.10632 -1.78216 3471 ft 141 kts 171°
2026-04-18 09:46 43.09665 -1.78005 3470 ft 140 kts 171°
2026-04-18 09:46 43.08707 -1.77795 3469 ft 142 kts 171°
2026-04-18 09:46 43.07730 -1.77583 3462 ft 142 kts 171°
2026-04-18 09:46 43.06754 -1.77368 3465 ft 143 kts 171°
2026-04-18 09:47 43.05769 -1.77153 3469 ft 144 kts 171°
2026-04-18 09:47 43.04782 -1.76937 3455 ft 143 kts 171°
2026-04-18 09:47 43.03798 -1.76724 3479 ft 142 kts 171°
2026-04-18 09:47 43.02837 -1.76514 3551 ft 138 kts 171°
2026-04-18 09:48 43.01899 -1.76306 3608 ft 135 kts 171°
2026-04-18 09:48 43.00977 -1.76100 3689 ft 134 kts 171°
2026-04-18 09:48 43.00063 -1.75894 3762 ft 132 kts 171°
2026-04-18 09:48 42.99169 -1.75690 3833 ft 131 kts 170°
2026-04-18 09:49 42.98275 -1.75485 3908 ft 130 kts 170°
2026-04-18 09:49 42.97390 -1.75279 3981 ft 129 kts 170°
2026-04-18 09:49 42.96510 -1.75074 4058 ft 128 kts 170°
2026-04-18 09:49 42.95635 -1.74869 4135 ft 127 kts 170°
2026-04-18 09:50 42.94769 -1.74665 4204 ft 125 kts 170°
2026-04-18 09:50 42.93913 -1.74466 4279 ft 124 kts 171°
2026-04-18 09:50 42.93066 -1.74265 4353 ft 123 kts 170°
2026-04-18 09:50 42.92226 -1.74069 4425 ft 122 kts 170°
2026-04-18 09:51 42.91380 -1.73866 4515 ft 125 kts 170°
2026-04-18 09:51 42.90519 -1.73662 4586 ft 126 kts 170°
2026-04-18 09:51 42.89673 -1.73456 4663 ft 125 kts 170°
2026-04-18 09:51 42.88827 -1.73248 4730 ft 122 kts 170°
2026-04-18 09:52 42.88004 -1.73038 4810 ft 120 kts 170°
2026-04-18 09:52 42.87184 -1.72808 4891 ft 121 kts 166°
2026-04-18 09:52 42.86389 -1.72457 4966 ft 118 kts 160°
2026-04-18 09:52 42.85565 -1.72204 4960 ft 124 kts 170°
2026-04-18 09:53 42.84681 -1.71987 4896 ft 134 kts 170°
2026-04-18 09:53 42.83740 -1.71818 4822 ft 137 kts 178°
2026-04-18 09:53 42.82838 -1.71825 4737 ft 122 kts 180°
2026-04-18 09:53 42.82008 -1.71823 4660 ft 122 kts 180°
2026-04-18 09:54 42.81149 -1.71810 4490 ft 122 kts 174°
2026-04-18 09:54 42.80308 -1.71609 4324 ft 123 kts 169°
2026-04-18 09:54 42.79533 -1.71198 4148 ft 124 kts 137°
2026-04-18 09:54 42.78980 -1.70258 3908 ft 131 kts 129°
2026-04-18 09:55 42.78432 -1.69230 3642 ft 137 kts 119°
2026-04-18 09:55 42.77986 -1.68071 3395 ft 139 kts 118°
2026-04-18 09:55 42.77437 -1.66974 3198 ft 138 kts 130°
2026-04-18 09:55 42.76747 -1.66142 3119 ft 131 kts 142°
2026-04-18 09:56 42.75998 -1.65455 2963 ft 126 kts 146°
2026-04-18 09:56 42.75250 -1.64793 2608 ft 137 kts 147°
2026-04-18 09:56 42.74479 -1.64115 2505 ft 127 kts 149°
2026-04-18 09:56 42.73729 -1.63601 2486 ft 115 kts 152°
2026-04-18 09:57 42.73201 -1.62903 2493 ft 105 kts 116°
2026-04-18 09:57 42.73128 -1.62002 2523 ft 93 kts 64°
2026-04-18 09:57 42.73588 -1.61565 2487 ft 86 kts 12°
2026-04-18 09:57 42.74138 -1.61855 2249 ft 93 kts 319°
2026-04-18 09:58 42.74575 -1.62384 2078 ft 82 kts 319°
2026-04-18 09:58 42.74936 -1.62835 1943 ft 66 kts 316°
2026-04-18 09:58 42.75275 -1.63243 1791 ft 64 kts 319°
2026-04-18 09:58 42.75623 -1.63590 1639 ft 60 kts 324°
2026-04-18 09:59 42.75964 -1.63870 1533 ft 54 kts 327°
2026-04-18 09:59 42.76246 -1.64073 1510 ft 46 kts 330°
2026-04-18 09:59 42.76454 -1.64224 1509 ft 12 kts 355°
2026-04-18 10:00 42.76550 -1.64107 1508 ft 10 kts 32°
2026-04-18 10:00 42.76626 -1.64110 1504 ft 12 kts 343°
2026-04-18 10:00 42.76673 -1.64134 1502 ft 0 kts 335°